الصفحة الرئيسية
METAR-TAF:

METAR-TAF

مطار :

مطار الحسيمة الشريف الإدريسي

الحسيمة, المغرب

دائرة عرض: 35-11N, خط طول: 003-51W, ارتفاع: 27 متر

مراقبة الطقس الحالي

تاريخ ووقت الإصدار 17 دقيقة قبل الساعة 00:00UTC
ريح 4 عقدة من الجنوب
درجة الحرارة 10°درجة مئوية
الرطوبة 93%
ضغط 1025 hPa
الرؤية: 8000 متر

METAR: GMTA 110000Z 18004KT 8000 NSC 10/09 Q1025 NOSIG

زمن: 01:17 (00:17 UTC)

توقعات

تاريخ ووقت الإصدار 1ساعة و 17 دقيقة قبل الساعة 23:00UTC
التوقعات صالحة من11 الساعة 00 UTC إلى 12 الساعة 06 UTC
ريح 6 عقدة من الجنوب
الرؤية: 8000 متر

TAF: GMTA 102300Z 1100/1206 19006KT 8000 NSC

أرصاد الطقس والتوقعات من أكثر من 4000 مطار (تقارير الطقس للمطار METAR والتنبؤ بالطقس بالمطارTAF).

المحطات المتاحة هي النقط الصفراء والحمراء على الخريطة.

حرك المؤشر فوق النقطة لمعرفة اسم المحطة.

ثم انقر لمعرفة أرصاد وتوقعات الطقس.

لتغيير الخارطة: اضغط على الأزرار الخضراء مع رمز الصليب الأسود للتكبير. على الزر الأخضر مع شرطة للتصغير، أو على الأسهم الخضراء للخرائط المجاورة.


METAR-TAF: